createdAt,value
2022-12-17T00:01:03.809Z,77.50
2022-12-17T00:03:49.582Z,79.47
2022-12-17T00:06:35.748Z,75.37
2022-12-17T00:09:32.881Z,74.67
2022-12-17T00:12:18.259Z,68.80
2022-12-17T00:15:03.400Z,72.07
2022-12-17T00:17:50.035Z,69.77
2022-12-17T00:20:35.253Z,69.70
2022-12-17T00:23:22.519Z,69.07
2022-12-17T00:26:12.066Z,69.73
2022-12-17T00:28:57.829Z,67.20
2022-12-17T00:31:45.120Z,70.57
2022-12-17T00:34:37.437Z,69.30
2022-12-17T00:37:23.059Z,68.43
2022-12-17T00:40:08.284Z,71.27
2022-12-17T00:42:53.652Z,69.13
2022-12-17T00:45:41.818Z,71.67
2022-12-17T00:48:27.121Z,71.30
2022-12-17T00:51:15.352Z,71.77
2022-12-17T00:54:00.701Z,69.37
2022-12-17T00:56:46.035Z,71.70
2022-12-17T00:59:39.711Z,72.10
2022-12-17T01:02:25.312Z,72.70
2022-12-17T01:05:11.268Z,74.27
2022-12-17T01:07:57.888Z,70.73
2022-12-17T01:10:44.820Z,72.10
2022-12-17T01:13:32.276Z,69.13
2022-12-17T01:16:21.959Z,73.80
2022-12-17T01:19:07.286Z,69.60
2022-12-17T01:21:53.409Z,65.23
2022-12-17T01:24:40.455Z,69.63
2022-12-17T01:27:26.829Z,66.93
2022-12-17T01:30:12.710Z,66.20
2022-12-17T01:32:58.017Z,67.53
2022-12-17T01:35:43.398Z,61.87
2022-12-17T01:38:29.750Z,62.57
2022-12-17T01:41:16.801Z,61.67
2022-12-17T01:44:02.227Z,63.90
2022-12-17T01:46:51.690Z,64.33
2022-12-17T01:49:38.285Z,62.47
2022-12-17T01:52:24.159Z,67.47
2022-12-17T01:55:09.634Z,65.07
2022-12-17T01:57:57.175Z,62.73
2022-12-17T02:00:43.042Z,62.60
2022-12-17T02:03:33.468Z,61.37
2022-12-17T02:06:29.268Z,61.87
2022-12-17T02:09:27.556Z,62.70
2022-12-17T02:12:25.780Z,58.40
2022-12-17T02:15:20.122Z,60.67
2022-12-17T02:18:11.891Z,59.70
2022-12-17T02:21:01.017Z,58.87
2022-12-17T02:23:57.665Z,60.03
2022-12-17T02:26:55.758Z,59.67
2022-12-17T02:29:43.546Z,62.70
2022-12-17T02:32:31.925Z,62.03
2022-12-17T02:35:20.019Z,63.07
2022-12-17T02:38:05.700Z,62.60
2022-12-17T02:40:50.187Z,63.00
2022-12-17T02:43:38.497Z,64.07
2022-12-17T02:46:25.428Z,63.80
2022-12-17T02:49:11.295Z,66.57
2022-12-17T02:51:57.538Z,61.93
2022-12-17T02:54:47.964Z,61.97
2022-12-17T02:57:33.309Z,60.10
2022-12-17T03:00:20.547Z,59.27
2022-12-17T03:03:08.158Z,58.60
2022-12-17T03:05:53.663Z,60.17
2022-12-17T03:08:39.006Z,54.63
2022-12-17T03:11:24.344Z,53.57
2022-12-17T03:14:10.557Z,54.93
2022-12-17T03:16:57.765Z,54.10
2022-12-17T03:19:43.009Z,54.77
2022-12-17T03:22:28.398Z,52.47
2022-12-17T03:25:13.967Z,55.13
2022-12-17T03:27:59.643Z,52.53
2022-12-17T03:30:48.929Z,52.70
2022-12-17T03:33:36.372Z,54.30
2022-12-17T03:36:22.368Z,54.03
2022-12-17T03:39:06.851Z,52.53
2022-12-17T03:41:52.335Z,51.73
2022-12-17T03:44:37.626Z,51.47
2022-12-17T03:47:22.875Z,49.80
2022-12-17T03:50:09.529Z,50.43
2022-12-17T03:52:54.899Z,48.83
2022-12-17T03:55:40.245Z,49.60
2022-12-17T03:58:25.877Z,48.13
2022-12-17T04:01:11.418Z,48.47
2022-12-17T04:03:56.919Z,48.13
2022-12-17T04:06:43.495Z,46.67
2022-12-17T04:09:28.828Z,45.73
2022-12-17T04:12:14.132Z,46.50
2022-12-17T04:14:59.431Z,46.50
2022-12-17T04:17:45.308Z,45.30
2022-12-17T04:20:30.717Z,44.30
2022-12-17T04:23:17.747Z,46.97
2022-12-17T04:26:03.039Z,44.77
2022-12-17T04:28:48.281Z,45.00
2022-12-17T04:31:33.740Z,45.13
2022-12-17T04:34:30.717Z,45.00
2022-12-17T04:37:16.066Z,46.30
2022-12-17T04:40:02.695Z,45.63
2022-12-17T04:42:48.261Z,47.17
2022-12-17T04:45:33.813Z,47.17
2022-12-17T04:48:20.701Z,46.33
2022-12-17T04:51:17.455Z,44.00
2022-12-17T04:54:02.810Z,44.30
2022-12-17T04:56:49.865Z,44.53
2022-12-17T04:59:35.255Z,44.80
2022-12-17T05:02:20.572Z,44.43
2022-12-17T05:05:06.315Z,43.70
2022-12-17T05:07:51.632Z,44.60
2022-12-17T05:10:42.215Z,43.27
2022-12-17T05:13:29.133Z,42.23
2022-12-17T05:16:14.965Z,44.07
2022-12-17T05:19:00.723Z,43.83
2022-12-17T05:21:46.651Z,45.07
2022-12-17T05:24:31.977Z,44.63
2022-12-17T05:27:17.444Z,44.73
2022-12-17T05:30:04.707Z,45.40
2022-12-17T05:32:49.951Z,45.77
2022-12-17T05:35:35.974Z,44.97
2022-12-17T05:38:23.365Z,44.47
2022-12-17T05:41:09.713Z,46.43
2022-12-17T05:43:55.110Z,46.13
2022-12-17T05:46:42.309Z,46.53
2022-12-17T05:49:27.621Z,46.47
2022-12-17T05:52:13.198Z,45.57
2022-12-17T05:54:58.426Z,47.13
2022-12-17T05:57:43.852Z,46.63
2022-12-17T06:00:30.335Z,48.10
2022-12-17T06:03:18.957Z,49.20
2022-12-17T06:06:04.278Z,49.23
2022-12-17T06:08:49.790Z,49.30
2022-12-17T06:11:35.007Z,50.37
2022-12-17T06:14:20.535Z,51.23
2022-12-17T06:17:05.716Z,51.60
2022-12-17T06:19:52.964Z,48.83
2022-12-17T06:22:38.750Z,51.33
2022-12-17T06:25:27.109Z,51.93
2022-12-17T06:28:17.060Z,51.67
2022-12-17T06:31:09.326Z,49.77
2022-12-17T06:33:56.226Z,51.03
2022-12-17T06:36:43.343Z,49.60
2022-12-17T06:39:40.142Z,51.13
2022-12-17T06:42:26.048Z,50.83
2022-12-17T06:45:11.303Z,51.80
2022-12-17T06:47:56.614Z,51.50
2022-12-17T06:50:41.734Z,50.40
2022-12-17T06:53:29.739Z,51.27
2022-12-17T06:56:17.110Z,52.23
2022-12-17T06:59:02.332Z,51.47
2022-12-17T07:01:48.676Z,49.70
2022-12-17T07:04:34.407Z,51.67
2022-12-17T07:07:20.104Z,51.60
2022-12-17T07:10:13.617Z,52.17
2022-12-17T07:13:01.858Z,49.60
2022-12-17T07:15:48.143Z,49.80
2022-12-17T07:18:33.355Z,52.07
2022-12-17T07:21:18.730Z,51.67
2022-12-17T07:24:04.159Z,51.57
2022-12-17T07:27:02.561Z,50.80
2022-12-17T07:29:48.075Z,52.40
2022-12-17T07:32:33.389Z,52.67
2022-12-17T07:35:18.826Z,52.00
2022-12-17T07:38:04.141Z,51.60
2022-12-17T07:40:49.788Z,55.00
2022-12-17T07:43:37.213Z,52.40
2022-12-17T07:46:23.438Z,51.90
2022-12-17T07:49:14.611Z,83.53
2022-12-17T07:52:02.668Z,51.87
2022-12-17T07:54:47.977Z,50.23
2022-12-17T07:57:33.726Z,50.23
2022-12-17T08:00:20.623Z,49.73
2022-12-17T08:03:06.625Z,49.23
2022-12-17T08:05:52.511Z,49.93
2022-12-17T08:08:37.899Z,49.47
2022-12-17T08:11:25.870Z,50.63
2022-12-17T08:14:11.703Z,50.60
2022-12-17T08:16:58.504Z,70.83
2022-12-17T08:19:44.141Z,52.40
2022-12-17T08:22:29.537Z,51.87
2022-12-17T08:25:15.070Z,51.17
2022-12-17T08:28:01.112Z,51.53
2022-12-17T08:30:51.513Z,49.50
2022-12-17T08:33:38.489Z,50.57
2022-12-17T08:36:24.279Z,49.53
2022-12-17T08:39:09.520Z,50.63
2022-12-17T08:41:57.444Z,51.27
2022-12-17T08:44:45.115Z,49.90
2022-12-17T08:47:30.456Z,50.67
2022-12-17T08:50:17.476Z,50.83
2022-12-17T08:53:02.661Z,50.53
2022-12-17T08:55:48.049Z,51.17
2022-12-17T08:58:33.406Z,48.87
2022-12-17T09:01:20.058Z,50.53
2022-12-17T09:04:06.129Z,51.90
2022-12-17T09:06:52.685Z,49.83
2022-12-17T09:09:39.464Z,51.03
2022-12-17T09:12:25.439Z,48.93
2022-12-17T09:15:10.771Z,49.37
2022-12-17T09:17:56.163Z,50.63
2022-12-17T09:20:41.394Z,49.57
2022-12-17T09:23:28.067Z,52.40
2022-12-17T09:26:14.992Z,51.80
2022-12-17T09:29:01.182Z,52.40
2022-12-17T09:31:46.464Z,55.13
2022-12-17T09:34:31.927Z,52.70
2022-12-17T09:37:17.660Z,51.70
2022-12-17T09:40:04.690Z,51.87
2022-12-17T09:42:59.936Z,50.80
2022-12-17T09:45:51.505Z,50.37
2022-12-17T09:48:41.906Z,50.57
2022-12-17T09:51:39.776Z,51.73
2022-12-17T09:54:33.549Z,51.23
2022-12-17T09:57:20.584Z,52.87
2022-12-17T10:00:05.954Z,52.80
2022-12-17T10:02:58.298Z,51.40
2022-12-17T10:05:49.647Z,51.67
2022-12-17T10:08:39.114Z,51.70
2022-12-17T10:11:35.717Z,49.87
2022-12-17T10:14:30.656Z,50.97
2022-12-17T10:17:16.203Z,49.57
2022-12-17T10:20:01.991Z,50.33
2022-12-17T10:22:47.666Z,48.83
2022-12-17T10:25:35.529Z,51.07
2022-12-17T10:28:23.636Z,52.00
2022-12-17T10:31:10.585Z,52.03
2022-12-17T10:33:58.997Z,53.50
2022-12-17T10:36:45.848Z,52.03
2022-12-17T10:39:35.017Z,52.87
2022-12-17T10:42:20.891Z,54.37
2022-12-17T10:45:14.583Z,51.60
2022-12-17T10:48:02.958Z,50.90
2022-12-17T10:51:06.319Z,51.63
2022-12-17T10:53:52.155Z,50.67
2022-12-17T10:56:41.493Z,49.90
2022-12-17T10:59:31.565Z,49.33
2022-12-17T11:02:18.210Z,48.53
2022-12-17T11:05:12.063Z,44.33
2022-12-17T11:08:01.979Z,46.10
2022-12-17T11:10:51.360Z,46.27
2022-12-17T11:13:47.558Z,46.00
2022-12-17T11:16:39.502Z,49.63
2022-12-17T11:19:44.306Z,48.17
2022-12-17T11:22:40.156Z,47.50
2022-12-17T11:25:45.506Z,46.67
2022-12-17T11:28:38.008Z,47.73
2022-12-17T11:31:33.779Z,48.80
2022-12-17T11:34:28.804Z,48.63
2022-12-17T11:37:24.688Z,49.77
2022-12-17T11:40:20.002Z,51.23
2022-12-17T11:43:14.126Z,51.27
2022-12-17T11:46:11.152Z,52.73
2022-12-17T11:49:02.781Z,53.53
2022-12-17T11:51:55.300Z,55.87
2022-12-17T11:54:46.916Z,57.07
2022-12-17T11:57:41.463Z,56.33
2022-12-17T12:00:35.150Z,55.37
2022-12-17T12:03:37.164Z,55.40
2022-12-17T12:06:32.122Z,58.30
2022-12-17T12:09:29.596Z,59.67
2022-12-17T12:12:23.182Z,60.10
2022-12-17T12:15:20.035Z,59.07
2022-12-17T12:18:12.463Z,60.53
2022-12-17T12:21:25.105Z,61.53
2022-12-17T12:24:22.588Z,59.67
2022-12-17T12:27:15.182Z,61.83
2022-12-17T12:30:07.523Z,60.30
2022-12-17T12:33:05.488Z,62.57
2022-12-17T12:35:56.447Z,62.53
2022-12-17T12:38:48.777Z,62.60
2022-12-17T12:41:46.608Z,64.20
2022-12-17T12:44:46.936Z,67.53
2022-12-17T12:47:42.692Z,64.90
2022-12-17T12:50:37.893Z,65.33
2022-12-17T12:53:23.655Z,67.13
2022-12-17T12:56:14.452Z,67.17
2022-12-17T12:59:00.204Z,65.07
2022-12-17T13:01:56.744Z,63.40
2022-12-17T13:04:49.635Z,68.80
2022-12-17T13:07:28.566Z,68.60
2022-12-17T13:09:58.264Z,67.90
2022-12-17T13:12:32.301Z,68.03
2022-12-17T13:15:12.239Z,63.33
2022-12-17T13:17:44.433Z,66.37
2022-12-17T13:20:28.263Z,67.97
2022-12-17T13:23:16.805Z,66.10
2022-12-17T13:25:45.253Z,65.33
2022-12-17T13:28:30.775Z,67.30
2022-12-17T13:31:03.750Z,66.17
2022-12-17T13:33:41.149Z,68.10
2022-12-17T13:36:15.288Z,67.57
2022-12-17T13:38:53.168Z,65.07
2022-12-17T13:41:27.486Z,68.03
2022-12-17T13:43:58.016Z,65.40
2022-12-17T13:46:27.974Z,63.70
2022-12-17T13:48:58.678Z,61.27
2022-12-17T13:51:29.051Z,64.23
2022-12-17T13:53:59.966Z,66.37
2022-12-17T13:56:31.268Z,65.40
2022-12-17T13:59:08.468Z,67.00
2022-12-17T14:01:46.586Z,64.63
2022-12-17T14:04:22.860Z,63.60
2022-12-17T14:06:52.732Z,63.17
2022-12-17T14:09:25.382Z,63.00
2022-12-17T14:12:11.219Z,65.20
2022-12-17T14:14:41.605Z,65.97
2022-12-17T14:17:18.562Z,63.73
2022-12-17T14:19:46.911Z,68.77
2022-12-17T14:22:20.815Z,68.00
2022-12-17T14:24:50.311Z,68.00
2022-12-17T14:27:27.605Z,67.53
2022-12-17T14:29:56.984Z,66.80
2022-12-17T14:32:27.824Z,68.17
2022-12-17T14:35:00.458Z,67.00
2022-12-17T14:37:30.364Z,65.27
2022-12-17T14:40:04.106Z,65.50
2022-12-17T14:42:37.104Z,66.87
2022-12-17T14:45:21.720Z,66.70
2022-12-17T14:47:54.735Z,68.33
2022-12-17T14:50:29.429Z,66.40
2022-12-17T14:52:59.123Z,68.03
2022-12-17T14:55:34.600Z,69.23
2022-12-17T14:58:21.219Z,68.60
2022-12-17T15:00:53.928Z,68.33
2022-12-17T15:03:25.642Z,63.57
2022-12-17T15:05:58.115Z,66.63
2022-12-17T15:08:35.783Z,66.87
2022-12-17T15:11:05.703Z,67.33
2022-12-17T15:13:33.793Z,65.23
2022-12-17T15:16:01.921Z,72.73
2022-12-17T15:18:29.888Z,71.43
2022-12-17T15:20:57.983Z,74.33
2022-12-17T15:23:26.390Z,73.13
2022-12-17T15:25:55.559Z,75.50
2022-12-17T15:28:25.416Z,75.73
2022-12-17T15:30:53.703Z,76.17
2022-12-17T15:33:21.730Z,78.73
2022-12-17T15:35:49.782Z,84.13
2022-12-17T15:38:25.293Z,84.10
2022-12-17T15:40:53.420Z,86.47
2022-12-17T15:43:20.510Z,88.17
2022-12-17T15:45:51.381Z,88.23
2022-12-17T15:48:21.616Z,89.37
2022-12-17T15:50:50.030Z,91.30
2022-12-17T15:53:18.009Z,93.63
2022-12-17T15:55:46.071Z,97.30
2022-12-17T15:58:14.107Z,96.27
2022-12-17T16:00:42.115Z,92.87
2022-12-17T16:03:11.695Z,95.33
2022-12-17T16:05:39.754Z,94.13
2022-12-17T16:08:07.901Z,90.63
2022-12-17T16:10:35.926Z,90.60
2022-12-17T16:13:03.950Z,93.20
2022-12-17T16:15:31.955Z,91.17
2022-12-17T16:18:00.043Z,93.57
2022-12-17T16:20:29.369Z,92.10
2022-12-17T16:22:57.355Z,93.77
2022-12-17T16:25:25.371Z,92.87
2022-12-17T16:27:53.337Z,92.40
2022-12-17T16:30:21.407Z,94.03
2022-12-17T16:32:49.423Z,89.97
2022-12-17T16:35:17.571Z,91.23
2022-12-17T16:37:46.942Z,92.53
2022-12-17T16:40:14.931Z,93.30
2022-12-17T16:42:42.933Z,88.23
2022-12-17T16:45:11.553Z,91.70
2022-12-17T16:47:39.941Z,92.47
2022-12-17T16:50:08.157Z,87.33
2022-12-17T16:52:36.355Z,86.90
2022-12-17T16:55:06.265Z,88.30
2022-12-17T16:57:34.316Z,90.43
2022-12-17T17:00:02.386Z,90.53
2022-12-17T17:02:30.615Z,91.53
2022-12-17T17:04:58.807Z,85.03
2022-12-17T17:07:26.890Z,87.37
2022-12-17T17:09:54.910Z,88.90
2022-12-17T17:12:25.510Z,88.23
2022-12-17T17:14:53.499Z,84.90
2022-12-17T17:17:54.319Z,86.80
2022-12-17T17:20:12.467Z,87.53
2022-12-17T17:22:40.900Z,88.70
2022-12-17T17:25:09.441Z,91.87
2022-12-17T17:27:38.934Z,85.50
2022-12-17T17:30:07.973Z,86.07
2022-12-17T17:32:36.022Z,90.73
2022-12-17T17:35:04.217Z,83.13
2022-12-17T17:37:32.316Z,84.90
2022-12-17T17:40:00.585Z,83.97
2022-12-17T17:42:28.615Z,85.23
2022-12-17T17:44:58.004Z,88.07
2022-12-17T17:47:25.976Z,89.77
2022-12-17T17:49:54.119Z,94.87
2022-12-17T17:52:22.104Z,93.93
2022-12-17T17:54:50.132Z,91.17
2022-12-17T17:57:18.186Z,87.67
2022-12-17T17:59:46.268Z,89.80
2022-12-17T18:02:15.722Z,89.63
2022-12-17T18:04:43.893Z,89.50
2022-12-17T18:07:28.472Z,87.93
2022-12-17T18:09:56.875Z,90.97
2022-12-17T18:12:42.383Z,89.67
2022-12-17T18:15:14.835Z,89.33
2022-12-17T18:17:45.767Z,88.27
2022-12-17T18:20:14.797Z,88.13
2022-12-17T18:22:42.890Z,77.80
2022-12-17T18:25:10.922Z,83.57
2022-12-17T18:27:39.030Z,82.83
2022-12-17T18:30:08.012Z,83.60
2022-12-17T18:32:36.002Z,83.63
2022-12-17T18:35:06.354Z,79.63
2022-12-17T18:37:34.573Z,78.93
2022-12-17T18:40:02.600Z,78.37
2022-12-17T18:42:48.204Z,73.37
2022-12-17T18:45:16.552Z,71.27
2022-12-17T18:47:44.862Z,74.13
2022-12-17T18:50:14.738Z,73.73
2022-12-17T18:52:42.734Z,79.67
2022-12-17T18:55:10.888Z,77.70
2022-12-17T18:57:38.851Z,79.73
2022-12-17T19:00:08.411Z,85.87
2022-12-17T19:02:36.513Z,84.37
2022-12-17T19:05:05.188Z,89.03
2022-12-17T19:07:34.590Z,87.53
2022-12-17T19:10:02.599Z,90.00
2022-12-17T19:12:30.806Z,82.93
2022-12-17T19:14:58.827Z,89.53
2022-12-17T19:17:26.876Z,87.30
2022-12-17T19:19:54.920Z,87.40
2022-12-17T19:22:23.005Z,87.27
2022-12-17T19:24:52.431Z,79.93
2022-12-17T19:27:20.475Z,77.27
2022-12-17T19:29:49.919Z,74.83
2022-12-17T19:32:18.685Z,74.43
2022-12-17T19:34:46.683Z,72.87
2022-12-17T19:37:14.737Z,72.90
2022-12-17T19:39:42.874Z,70.30
2022-12-17T19:42:24.951Z,64.37
2022-12-17T19:44:54.134Z,66.47
2022-12-17T19:47:23.301Z,68.57
2022-12-17T19:49:51.625Z,63.63
2022-12-17T19:52:19.808Z,63.33
2022-12-17T19:54:49.802Z,65.73
2022-12-17T19:57:19.160Z,63.97
2022-12-17T19:59:47.373Z,60.97
2022-12-17T20:02:17.530Z,60.30
2022-12-17T20:04:45.730Z,65.20
2022-12-17T20:07:13.716Z,68.60
2022-12-17T20:09:44.181Z,66.47
2022-12-17T20:12:12.583Z,62.63
2022-12-17T20:14:42.061Z,68.10
2022-12-17T20:17:11.093Z,63.37
2022-12-17T20:19:39.180Z,66.43
2022-12-17T20:22:07.856Z,65.37
2022-12-17T20:24:37.401Z,58.17
2022-12-17T20:27:05.882Z,64.57
2022-12-17T20:29:33.940Z,63.57
2022-12-17T20:32:03.924Z,61.30
2022-12-17T20:34:32.310Z,59.97
2022-12-17T20:37:00.347Z,59.73
2022-12-17T20:39:28.600Z,60.27
2022-12-17T20:41:57.315Z,56.40
2022-12-17T20:44:25.522Z,54.77
2022-12-17T20:46:53.861Z,55.87
2022-12-17T20:49:23.374Z,51.20
2022-12-17T20:51:51.450Z,54.90
2022-12-17T20:54:19.601Z,54.17
2022-12-17T20:56:47.710Z,53.83
2022-12-17T20:59:17.691Z,54.33
2022-12-17T21:01:49.190Z,54.60
2022-12-17T21:04:20.945Z,53.40
2022-12-17T21:06:50.395Z,50.50
2022-12-17T21:09:20.965Z,53.57
2022-12-17T21:11:49.724Z,54.40
2022-12-17T21:14:19.764Z,55.37
2022-12-17T21:16:48.247Z,54.53
2022-12-17T21:19:18.330Z,55.70
2022-12-17T21:21:46.600Z,55.80
2022-12-17T21:24:16.081Z,56.03
2022-12-17T21:26:45.909Z,56.40
2022-12-17T21:29:15.221Z,54.30
2022-12-17T21:31:45.965Z,57.47
2022-12-17T21:34:15.622Z,60.07
2022-12-17T21:36:44.547Z,52.97
2022-12-17T21:39:14.406Z,56.53
2022-12-17T21:42:05.842Z,57.40
2022-12-17T21:44:33.866Z,58.33
2022-12-17T21:47:02.332Z,54.80
2022-12-17T21:49:30.565Z,58.93
2022-12-17T21:52:00.144Z,58.97
2022-12-17T21:54:28.461Z,57.60
2022-12-17T21:56:57.899Z,58.10
2022-12-17T21:59:25.953Z,56.87
2022-12-17T22:01:54.476Z,60.77
2022-12-17T22:04:22.664Z,59.67
2022-12-17T22:06:53.256Z,59.17
2022-12-17T22:09:41.959Z,58.47
2022-12-17T22:12:32.030Z,56.77
2022-12-17T22:15:00.100Z,56.30
2022-12-17T22:17:29.651Z,55.90
2022-12-17T22:19:57.669Z,55.77
2022-12-17T22:22:25.665Z,56.70
2022-12-17T22:24:53.869Z,53.57
2022-12-17T22:27:24.121Z,54.07
2022-12-17T22:30:09.709Z,53.30
2022-12-17T22:32:55.001Z,54.87
2022-12-17T22:35:49.032Z,52.93
2022-12-17T22:40:47.344Z,54.63
2022-12-17T22:44:32.292Z,57.10
2022-12-17T22:44:46.465Z,56.57
2022-12-17T22:46:42.720Z,53.37
2022-12-17T22:49:11.137Z,53.50
2022-12-17T22:51:40.851Z,53.40
2022-12-17T22:54:12.146Z,52.57
2022-12-17T22:57:06.116Z,54.60
2022-12-17T22:59:31.985Z,52.93
2022-12-17T23:02:00.158Z,54.63
2022-12-17T23:04:28.242Z,53.13
2022-12-17T23:06:56.315Z,52.70
2022-12-17T23:09:24.300Z,50.03
2022-12-17T23:11:52.361Z,51.67
2022-12-17T23:14:20.531Z,50.23
2022-12-17T23:16:50.024Z,51.40
2022-12-17T23:19:20.536Z,51.33
2022-12-17T23:21:48.571Z,51.63
2022-12-17T23:24:16.604Z,51.57
2022-12-17T23:26:44.612Z,50.30
2022-12-17T23:29:19.429Z,49.57
2022-12-17T23:31:49.360Z,50.03
2022-12-17T23:34:17.452Z,50.97
2022-12-17T23:36:45.544Z,51.47
2022-12-17T23:39:13.586Z,49.07
2022-12-17T23:41:41.616Z,49.20
2022-12-17T23:44:09.677Z,51.27
2022-12-17T23:46:37.800Z,47.77
2022-12-17T23:49:07.495Z,47.67
2022-12-17T23:51:35.605Z,50.10
2022-12-17T23:54:03.827Z,49.03
2022-12-17T23:56:31.802Z,49.20
2022-12-17T23:59:01.672Z,50.27
